createdAt,value
2023-02-18T00:01:25.627Z,100877.47
2023-02-18T00:04:27.112Z,100880.50
2023-02-18T00:07:28.649Z,100869.66
2023-02-18T00:10:30.119Z,100876.22
2023-02-18T00:13:31.655Z,100869.09
2023-02-18T00:16:33.270Z,100873.50
2023-02-18T00:19:34.736Z,100871.94
2023-02-18T00:22:36.208Z,100881.09
2023-02-18T00:25:37.739Z,100869.25
2023-02-18T00:28:39.275Z,100857.53
2023-02-18T00:31:41.458Z,100860.38
2023-02-18T00:34:43.424Z,100861.41
2023-02-18T00:37:44.881Z,100865.09
2023-02-18T00:40:47.637Z,100861.53
2023-02-18T00:43:49.808Z,100861.72
2023-02-18T00:46:54.234Z,100857.28
2023-02-18T00:49:55.676Z,100856.41
2023-02-18T00:52:57.138Z,100863.72
2023-02-18T00:55:59.265Z,100863.84
2023-02-18T00:59:00.775Z,100868.44
2023-02-18T01:02:02.319Z,100864.97
2023-02-18T01:05:04.053Z,100866.84
2023-02-18T01:08:07.097Z,100868.69
2023-02-18T01:11:10.940Z,100870.56
2023-02-18T01:14:12.547Z,100878.84
2023-02-18T01:17:14.100Z,100880.69
2023-02-18T01:20:17.446Z,100881.69
2023-02-18T01:23:19.368Z,100887.28
2023-02-18T01:26:22.902Z,100877.41
2023-02-18T01:29:24.539Z,100878.41
2023-02-18T01:32:26.068Z,100875.72
2023-02-18T01:35:27.633Z,100883.00
2023-02-18T01:38:29.884Z,100883.00
2023-02-18T01:41:31.473Z,100866.84
2023-02-18T01:44:34.049Z,100864.31
2023-02-18T01:47:35.519Z,100872.59
2023-02-18T01:50:40.752Z,100851.75
2023-02-18T01:54:07.285Z,100852.59
2023-02-18T01:57:22.975Z,100859.88
2023-02-18T02:00:24.634Z,100846.47
2023-02-18T02:03:27.344Z,100842.88
2023-02-18T02:06:29.031Z,100841.19
2023-02-18T02:09:31.993Z,100840.19
2023-02-18T02:12:39.789Z,100832.22
2023-02-18T02:15:45.450Z,100826.78
2023-02-18T02:19:02.085Z,100821.38
2023-02-18T02:22:03.898Z,100811.66
2023-02-18T02:25:33.261Z,100818.66
2023-02-18T02:29:02.252Z,100824.06
2023-02-18T02:32:32.775Z,100819.63
2023-02-18T02:35:45.091Z,100823.22
2023-02-18T02:39:00.277Z,100817.09
2023-02-18T02:42:29.751Z,100808.09
2023-02-18T02:45:56.165Z,100816.25
2023-02-18T02:49:16.172Z,100807.41
2023-02-18T02:52:29.874Z,100801.97
2023-02-18T02:55:31.502Z,100801.97
2023-02-18T02:58:33.431Z,100791.13
2023-02-18T03:01:57.028Z,100796.53
2023-02-18T03:05:28.149Z,100793.00
2023-02-18T03:08:55.490Z,100783.97
2023-02-18T03:12:07.310Z,100774.16
2023-02-18T03:15:23.218Z,100779.69
2023-02-18T03:18:49.057Z,100769.88
2023-02-18T03:21:53.666Z,100769.88
2023-02-18T03:24:57.628Z,100764.44
2023-02-18T03:28:07.360Z,100750.91
2023-02-18T03:31:13.532Z,100748.19
2023-02-18T03:34:25.393Z,100734.75
2023-02-18T03:37:29.790Z,100736.63
2023-02-18T03:40:31.810Z,100728.50
2023-02-18T03:43:35.794Z,100717.66
2023-02-18T03:46:39.508Z,100720.34
2023-02-18T03:49:41.088Z,100718.50
2023-02-18T03:52:42.680Z,100716.81
2023-02-18T03:55:44.206Z,100725.94
2023-02-18T03:58:46.033Z,100705.09
2023-02-18T04:01:47.524Z,100705.09
2023-02-18T04:04:49.026Z,100706.97
2023-02-18T04:07:50.504Z,100699.81
2023-02-18T04:10:52.323Z,100698.13
2023-02-18T04:13:53.809Z,100692.72
2023-02-18T04:16:55.350Z,100688.97
2023-02-18T04:19:56.842Z,100691.69
2023-02-18T04:22:58.368Z,100692.72
2023-02-18T04:25:59.859Z,100696.41
2023-02-18T04:29:01.350Z,100690.97
2023-02-18T04:32:03.004Z,100690.00
2023-02-18T04:35:05.556Z,100677.41
2023-02-18T04:38:07.925Z,100675.72
2023-02-18T04:41:10.928Z,100677.41
2023-02-18T04:44:12.487Z,100674.72
2023-02-18T04:47:14.382Z,100669.47
2023-02-18T04:50:16.019Z,100661.16
2023-02-18T04:53:17.554Z,100655.91
2023-02-18T04:56:19.025Z,100655.06
2023-02-18T04:59:20.583Z,100646.94
2023-02-18T05:02:22.061Z,100647.91
2023-02-18T05:05:23.587Z,100637.06
2023-02-18T05:08:25.343Z,100644.34
2023-02-18T05:11:26.868Z,100631.81
2023-02-18T05:14:28.346Z,100627.38
2023-02-18T05:17:29.911Z,100628.22
2023-02-18T05:20:31.439Z,100620.97
2023-02-18T05:23:33.020Z,100615.56
2023-02-18T05:26:34.918Z,100602.97
2023-02-18T05:29:36.422Z,100602.97
2023-02-18T05:32:37.916Z,100601.13
2023-02-18T05:35:39.750Z,100599.44
2023-02-18T05:38:41.284Z,100597.72
2023-02-18T05:41:42.768Z,100593.16
2023-02-18T05:44:44.319Z,100587.88
2023-02-18T05:47:45.799Z,100581.47
2023-02-18T05:50:53.806Z,100573.47
2023-02-18T05:53:55.660Z,100570.75
2023-02-18T05:56:57.216Z,100557.22
2023-02-18T06:00:00.148Z,100552.81
2023-02-18T06:03:01.838Z,100543.78
2023-02-18T06:06:03.627Z,100547.38
2023-02-18T06:09:05.813Z,100548.22
2023-02-18T06:12:07.453Z,100534.81
2023-02-18T06:15:09.181Z,100523.13
2023-02-18T06:18:10.668Z,100522.13
2023-02-18T06:21:12.147Z,100514.16
2023-02-18T06:24:13.676Z,100521.28
2023-02-18T06:27:15.237Z,100503.44
2023-02-18T06:30:16.867Z,100509.72
2023-02-18T06:33:18.399Z,100501.59
2023-02-18T06:36:19.941Z,100497.19
2023-02-18T06:39:21.468Z,100481.94
2023-02-18T06:42:22.954Z,100468.53
2023-02-18T06:45:24.486Z,100464.81
2023-02-18T06:48:26.047Z,100457.69
2023-02-18T06:51:27.554Z,100452.41
2023-02-18T06:54:29.116Z,100441.56
2023-02-18T06:57:30.681Z,100438.03
2023-02-18T07:00:32.286Z,100432.78
2023-02-18T07:03:34.159Z,100418.34
2023-02-18T07:06:35.679Z,100418.53
2023-02-18T07:09:37.159Z,100424.78
2023-02-18T07:12:38.673Z,100407.69
2023-02-18T07:15:40.145Z,100396.00
2023-02-18T07:18:41.651Z,100389.88
2023-02-18T07:21:43.442Z,100381.75
2023-02-18T07:24:44.948Z,100384.59
2023-02-18T07:27:46.461Z,100386.47
2023-02-18T07:30:47.950Z,100373.94
2023-02-18T07:33:49.436Z,100366.78
2023-02-18T07:36:50.988Z,100370.34
2023-02-18T07:39:52.559Z,100364.09
2023-02-18T07:42:54.052Z,100367.66
2023-02-18T07:45:55.727Z,100364.09
2023-02-18T07:48:58.331Z,100352.25
2023-02-18T07:52:00.008Z,100351.25
2023-02-18T07:55:01.595Z,100352.09
2023-02-18T07:58:03.258Z,100351.94
2023-02-18T08:01:07.267Z,100338.22
2023-02-18T08:04:08.919Z,100346.19
2023-02-18T08:07:14.772Z,100319.94
2023-02-18T08:10:16.308Z,100317.09
2023-02-18T08:13:17.943Z,100322.19
2023-02-18T08:16:21.103Z,100337.44
2023-02-18T08:19:22.568Z,100332.69
2023-02-18T08:22:24.022Z,100323.56
2023-02-18T08:25:29.825Z,100324.09
2023-02-18T08:28:31.539Z,100319.19
2023-02-18T08:31:33.298Z,100315.31
2023-02-18T08:34:34.848Z,100306.19
2023-02-18T08:37:53.289Z,100308.72
2023-02-18T08:41:04.315Z,100303.00
2023-02-18T08:44:05.833Z,100294.88
2023-02-18T08:48:13.762Z,100295.72
2023-02-18T08:50:28.898Z,100290.13
2023-02-18T08:53:30.425Z,100284.53
2023-02-18T08:56:32.634Z,100282.69
2023-02-18T08:59:34.157Z,100300.81
2023-02-18T09:02:35.672Z,100288.94
2023-02-18T09:05:39.477Z,100282.69
2023-02-18T09:08:40.985Z,100279.97
2023-02-18T09:11:43.137Z,100275.56
2023-02-18T09:14:47.899Z,100255.56
2023-02-18T09:17:49.387Z,100264.88
2023-02-18T09:20:50.917Z,100262.00
2023-02-18T09:23:52.835Z,100237.59
2023-02-18T09:26:55.464Z,100245.75
2023-02-18T09:29:57.065Z,100238.44
2023-02-18T09:32:58.576Z,100263.69
2023-02-18T09:36:01.556Z,100265.41
2023-02-18T09:39:03.197Z,100268.13
2023-02-18T09:42:11.306Z,100257.78
2023-02-18T09:45:13.812Z,100246.59
2023-02-18T09:48:15.301Z,100239.97
2023-02-18T09:51:17.790Z,100249.59
2023-02-18T09:54:20.465Z,100247.03
2023-02-18T09:57:43.186Z,100227.22
2023-02-18T10:00:50.880Z,100222.13
2023-02-18T10:03:55.507Z,100231.44
2023-02-18T10:06:58.308Z,100217.00
2023-02-18T10:10:15.634Z,100213.28
2023-02-18T10:13:20.337Z,100210.41
2023-02-18T10:16:24.570Z,100208.38
2023-02-18T10:19:32.303Z,100219.09
2023-02-18T10:22:33.795Z,100204.69
2023-02-18T10:25:42.196Z,100215.19
2023-02-18T10:28:44.473Z,100216.03
2023-02-18T10:31:51.762Z,100196.91
2023-02-18T10:35:18.347Z,100214.88
2023-02-18T10:38:42.547Z,100218.41
2023-02-18T10:41:43.956Z,100215.03
2023-02-18T10:45:09.056Z,100211.13
2023-02-18T10:48:22.644Z,100223.69
2023-02-18T10:51:33.113Z,100219.81
2023-02-18T10:54:52.851Z,100211.50
2023-02-18T10:57:55.232Z,100203.34
2023-02-18T11:00:57.544Z,100203.22
2023-02-18T11:04:15.967Z,100189.50
2023-02-18T11:07:27.238Z,100213.72
2023-02-18T11:10:38.906Z,100217.28
2023-02-18T11:13:41.159Z,100208.31
2023-02-18T11:16:45.404Z,100193.75
2023-02-18T11:20:18.784Z,100198.16
2023-02-18T11:23:21.698Z,100208.84
2023-02-18T11:26:34.900Z,100198.84
2023-02-18T11:29:36.987Z,100213.09
2023-02-18T11:32:38.523Z,100198.84
2023-02-18T11:35:40.031Z,100213.09
2023-02-18T11:38:46.861Z,100211.03
2023-02-18T11:42:07.437Z,100218.31
2023-02-18T11:45:27.502Z,100220.03
2023-02-18T11:48:29.127Z,100224.78
2023-02-18T11:51:36.609Z,100219.16
2023-02-18T11:54:38.261Z,100217.47
2023-02-18T11:57:43.740Z,100216.47
2023-02-18T12:00:48.905Z,100220.03
2023-02-18T12:03:56.809Z,100227.31
2023-02-18T12:07:40.626Z,100223.75
2023-02-18T12:10:51.711Z,100194.78
2023-02-18T12:13:58.406Z,100209.34
2023-02-18T12:17:09.101Z,100210.19
2023-02-18T12:20:32.417Z,100216.47
2023-02-18T12:23:56.005Z,100206.78
2023-02-18T12:27:03.275Z,100217.34
2023-02-18T12:30:10.952Z,100219.03
2023-02-18T12:33:24.466Z,100218.88
2023-02-18T12:36:47.756Z,100247.53
2023-02-18T12:40:26.515Z,100256.31
2023-02-18T12:43:33.977Z,100256.16
2023-02-18T12:47:08.720Z,100257.69
2023-02-18T12:50:35.011Z,100249.41
2023-02-18T12:53:42.998Z,100252.97
2023-02-18T12:57:23.330Z,100247.38
2023-02-18T13:00:33.913Z,100247.25
2023-02-18T13:03:46.968Z,100254.22
2023-02-18T13:07:00.648Z,100256.06
2023-02-18T13:10:38.918Z,100254.06
2023-02-18T13:13:55.192Z,100260.13
2023-02-18T13:17:00.006Z,100252.00
2023-02-18T13:20:07.546Z,100257.44
2023-02-18T13:23:22.755Z,100261.69
2023-02-18T13:26:25.108Z,100251.84
2023-02-18T13:29:34.454Z,100252.53
2023-02-18T13:32:51.146Z,100260.50
2023-02-18T13:36:04.407Z,100262.38
2023-02-18T13:39:21.118Z,100256.59
2023-02-18T13:42:31.035Z,100266.63
2023-02-18T13:45:33.133Z,100262.03
2023-02-18T13:48:42.735Z,100264.44
2023-02-18T13:51:54.091Z,100268.84
2023-02-18T13:54:55.907Z,100284.28
2023-02-18T13:57:59.829Z,100278.66
2023-02-18T14:01:17.519Z,100275.81
2023-02-18T14:04:37.474Z,100278.38
2023-02-18T14:07:46.884Z,100281.72
2023-02-18T14:11:13.519Z,100288.88
2023-02-18T14:14:33.106Z,100280.91
2023-02-18T14:17:40.865Z,100291.59
2023-02-18T14:20:51.874Z,100291.59
2023-02-18T14:23:57.416Z,100299.75
2023-02-18T14:27:14.483Z,100305.16
2023-02-18T14:30:33.604Z,100308.72
2023-02-18T14:33:36.592Z,100314.16
2023-02-18T14:37:19.383Z,100303.13
2023-02-18T14:40:51.952Z,100314.84
2023-02-18T14:43:59.235Z,100320.25
2023-02-18T14:47:15.952Z,100320.09
2023-02-18T14:50:19.864Z,100330.78
2023-02-18T14:53:24.984Z,100330.78
2023-02-18T14:56:26.605Z,100343.19
2023-02-18T14:59:34.168Z,100337.59
2023-02-18T15:02:38.534Z,100320.28
2023-02-18T15:05:40.532Z,100321.13
2023-02-18T15:08:42.030Z,100328.28
2023-02-18T15:12:06.240Z,100340.66
2023-02-18T15:15:13.598Z,100337.09
2023-02-18T15:18:31.786Z,100345.06
2023-02-18T15:21:39.171Z,100347.63
2023-02-18T15:24:40.810Z,100348.47
2023-02-18T15:27:46.916Z,100358.31
2023-02-18T15:30:49.269Z,100349.31
2023-02-18T15:33:50.725Z,100361.03
2023-02-18T15:36:53.485Z,100379.03
2023-02-18T15:39:55.150Z,100374.59
2023-02-18T15:42:59.136Z,100372.91
2023-02-18T15:46:14.283Z,100366.78
2023-02-18T15:49:19.900Z,100367.97
2023-02-18T15:52:31.000Z,100381.53
2023-02-18T15:55:38.487Z,100378.13
2023-02-18T15:58:40.028Z,100375.59
2023-02-18T16:01:41.548Z,100379.31
2023-02-18T16:04:48.703Z,100382.84
2023-02-18T16:07:59.535Z,100379.16
2023-02-18T16:11:05.507Z,100387.44
2023-02-18T16:14:07.479Z,100380.31
2023-02-18T16:17:11.766Z,100385.75
2023-02-18T16:20:27.405Z,100390.50
2023-02-18T16:23:58.002Z,100387.88
2023-02-18T16:27:01.378Z,100390.91
2023-02-18T16:30:15.892Z,100386.09
2023-02-18T16:33:17.434Z,100403.53
2023-02-18T16:36:19.315Z,100401.53
2023-02-18T16:39:21.035Z,100394.09
2023-02-18T16:42:22.638Z,100404.59
2023-02-18T16:45:32.573Z,100415.00
2023-02-18T16:48:37.363Z,100419.25
2023-02-18T16:51:40.308Z,100409.94
2023-02-18T16:54:43.591Z,100408.59
2023-02-18T16:57:47.459Z,100412.84
2023-02-18T17:00:52.286Z,100420.50
2023-02-18T17:03:54.503Z,100420.00
2023-02-18T17:06:56.002Z,100416.97
2023-02-18T17:09:57.544Z,100419.53
2023-02-18T17:12:59.067Z,100416.47
2023-02-18T17:16:00.549Z,100427.00
2023-02-18T17:19:02.055Z,100417.88
2023-02-18T17:22:03.531Z,100431.97
2023-02-18T17:25:11.986Z,100417.22
2023-02-18T17:28:15.106Z,100430.78
2023-02-18T17:31:26.453Z,100435.03
2023-02-18T17:34:31.072Z,100444.03
2023-02-18T17:37:32.883Z,100443.88
2023-02-18T17:40:34.462Z,100451.00
2023-02-18T17:43:36.982Z,100448.13
2023-02-18T17:46:38.481Z,100460.69
2023-02-18T17:49:40.087Z,100456.13
2023-02-18T17:52:42.237Z,100459.69
2023-02-18T17:55:45.930Z,100471.38
2023-02-18T17:58:48.672Z,100464.09
2023-02-18T18:01:50.162Z,100479.38
2023-02-18T18:04:51.590Z,100475.63
2023-02-18T18:07:53.922Z,100481.06
2023-02-18T18:10:59.366Z,100490.06
2023-02-18T18:14:00.909Z,100489.06
2023-02-18T18:17:02.739Z,100477.34
2023-02-18T18:20:04.767Z,100482.63
2023-02-18T18:23:07.590Z,100492.44
2023-02-18T18:26:09.579Z,100494.31
2023-02-18T18:29:11.053Z,100490.75
2023-02-18T18:32:12.761Z,100496.88
2023-02-18T18:35:26.356Z,100492.28
2023-02-18T18:38:29.102Z,100491.44
2023-02-18T18:41:30.598Z,100496.19
2023-02-18T18:44:32.090Z,100496.66
2023-02-18T18:47:33.623Z,100497.16
2023-02-18T18:50:37.555Z,100511.06
2023-02-18T18:53:39.068Z,100509.19
2023-02-18T18:56:40.578Z,100510.72
2023-02-18T18:59:42.205Z,100507.84
2023-02-18T19:02:44.376Z,100520.41
2023-02-18T19:05:47.207Z,100522.97
2023-02-18T19:08:48.721Z,100510.25
2023-02-18T19:11:50.193Z,100522.81
2023-02-18T19:14:51.680Z,100521.81
2023-02-18T19:17:54.196Z,100509.91
2023-02-18T19:20:56.534Z,100522.50
2023-02-18T19:23:59.713Z,100526.19
2023-02-18T19:27:01.236Z,100538.78
2023-02-18T19:30:03.934Z,100545.91
2023-02-18T19:33:06.257Z,100547.78
2023-02-18T19:36:10.191Z,100551.19
2023-02-18T19:39:11.634Z,100556.78
2023-02-18T19:42:13.335Z,100548.47
2023-02-18T19:45:15.534Z,100548.28
2023-02-18T19:48:17.068Z,100544.75
2023-02-18T19:51:20.547Z,100549.16
2023-02-18T19:54:22.262Z,100535.59
2023-02-18T19:57:24.140Z,100539.16
2023-02-18T20:00:25.660Z,100548.16
2023-02-18T20:03:27.144Z,100550.88
2023-02-18T20:06:28.891Z,100535.28
2023-02-18T20:09:30.363Z,100534.41
2023-02-18T20:12:32.042Z,100535.28
2023-02-18T20:15:33.496Z,100538.81
2023-02-18T20:18:35.992Z,100534.41
2023-02-18T20:21:37.536Z,100550.72
2023-02-18T20:24:39.962Z,100543.41
2023-02-18T20:27:58.260Z,100533.53
2023-02-18T20:31:11.575Z,100525.41
2023-02-18T20:34:13.586Z,100529.13
2023-02-18T20:37:15.142Z,100527.44
2023-02-18T20:40:17.674Z,100531.84
2023-02-18T20:43:19.139Z,100533.88
2023-02-18T20:46:24.571Z,100531.16
2023-02-18T20:49:26.074Z,100538.47
2023-02-18T20:52:27.579Z,100531.34
2023-02-18T20:55:29.115Z,100531.50
2023-02-18T20:58:31.287Z,100523.34
2023-02-18T21:01:33.083Z,100537.94
2023-02-18T21:04:34.639Z,100530.78
2023-02-18T21:07:36.172Z,100530.78
2023-02-18T21:10:39.900Z,100542.50
2023-02-18T21:13:41.793Z,100526.38
2023-02-18T21:16:43.362Z,100532.81
2023-02-18T21:19:44.906Z,100531.13
2023-02-18T21:22:46.370Z,100524.00
2023-02-18T21:25:48.234Z,100518.56
2023-02-18T21:28:55.625Z,100524.00
2023-02-18T21:31:57.281Z,100530.41
2023-02-18T21:34:58.779Z,100519.75
2023-02-18T21:38:00.256Z,100516.16
2023-02-18T21:41:04.582Z,100511.59
2023-02-18T21:44:06.128Z,100510.06
2023-02-18T21:47:07.656Z,100504.78
2023-02-18T21:50:09.914Z,100503.09
2023-02-18T21:53:11.530Z,100497.66
2023-02-18T21:56:13.021Z,100495.94
2023-02-18T21:59:15.175Z,100491.53
2023-02-18T22:02:22.571Z,100493.41
2023-02-18T22:05:25.993Z,100493.56
2023-02-18T22:08:27.493Z,100491.69
2023-02-18T22:11:30.232Z,100498.13
2023-02-18T22:14:31.770Z,100494.72
2023-02-18T22:17:33.382Z,100484.88
2023-02-18T22:20:34.824Z,100485.03
2023-02-18T22:23:36.465Z,100486.06
2023-02-18T22:26:37.978Z,100484.34
2023-02-18T22:29:39.575Z,100485.38
2023-02-18T22:32:41.061Z,100481.81
2023-02-18T22:35:42.544Z,100471.25
2023-02-18T22:38:44.054Z,100474.84
2023-02-18T22:41:45.523Z,100474.13
2023-02-18T22:44:47.050Z,100470.72
2023-02-18T22:47:48.548Z,100480.88
2023-02-18T22:50:50.004Z,100471.06
2023-02-18T22:53:53.605Z,100458.47
2023-02-18T22:56:55.126Z,100455.94
2023-02-18T22:59:57.440Z,100463.25
2023-02-18T23:02:58.944Z,100448.97
2023-02-18T23:06:06.200Z,100448.97
2023-02-18T23:09:09.136Z,100443.69
2023-02-18T23:12:10.632Z,100442.16
2023-02-18T23:15:14.093Z,100445.72
2023-02-18T23:18:15.723Z,100456.91
2023-02-18T23:21:17.257Z,100467.75
2023-02-18T23:24:18.976Z,100472.34
2023-02-18T23:27:21.377Z,100470.63
2023-02-18T23:30:22.985Z,100459.09
2023-02-18T23:33:24.536Z,100441.97
2023-02-18T23:36:28.752Z,100419.25
2023-02-18T23:39:30.383Z,100406.84
2023-02-18T23:42:31.861Z,100396.84
2023-02-18T23:45:33.356Z,100388.69
2023-02-18T23:48:38.264Z,100374.16
2023-02-18T23:51:39.914Z,100369.56
2023-02-18T23:54:41.392Z,100377.69
2023-02-18T23:57:42.876Z,100381.25
